sensor_id;sensor_type;location;lat;lon;timestamp;temperature;humidity
42019;DHT22;27703;51.980;5.848;2023-03-23T00:02:02;11.70;99.90
42019;DHT22;27703;51.980;5.848;2023-03-23T00:04:28;11.70;99.90
42019;DHT22;27703;51.980;5.848;2023-03-23T00:06:54;11.70;99.90
42019;DHT22;27703;51.980;5.848;2023-03-23T00:09:19;11.70;99.90
42019;DHT22;27703;51.980;5.848;2023-03-23T00:11:49;11.80;99.90
42019;DHT22;27703;51.980;5.848;2023-03-23T00:14:16;11.70;99.90
42019;DHT22;27703;51.980;5.848;2023-03-23T00:16:41;11.70;99.90
42019;DHT22;27703;51.980;5.848;2023-03-23T00:19:11;11.70;99.90
42019;DHT22;27703;51.980;5.848;2023-03-23T00:21:40;11.70;99.90
42019;DHT22;27703;51.980;5.848;2023-03-23T00:24:16;11.70;99.90
42019;DHT22;27703;51.980;5.848;2023-03-23T00:26:43;11.70;99.90
42019;DHT22;27703;51.980;5.848;2023-03-23T00:29:21;11.70;99.90
42019;DHT22;27703;51.980;5.848;2023-03-23T00:31:48;11.70;99.90
42019;DHT22;27703;51.980;5.848;2023-03-23T00:34:18;11.70;99.90
42019;DHT22;27703;51.980;5.848;2023-03-23T00:36:48;11.80;99.90
42019;DHT22;27703;51.980;5.848;2023-03-23T00:39:14;11.70;99.90
42019;DHT22;27703;51.980;5.848;2023-03-23T00:41:44;11.70;99.90
42019;DHT22;27703;51.980;5.848;2023-03-23T00:44:10;11.70;99.90
42019;DHT22;27703;51.980;5.848;2023-03-23T00:46:42;11.70;99.90
42019;DHT22;27703;51.980;5.848;2023-03-23T00:49:13;11.70;99.90
42019;DHT22;27703;51.980;5.848;2023-03-23T00:51:39;11.80;99.90
42019;DHT22;27703;51.980;5.848;2023-03-23T00:54:05;11.80;99.90
42019;DHT22;27703;51.980;5.848;2023-03-23T00:56:30;11.70;99.90
42019;DHT22;27703;51.980;5.848;2023-03-23T00:58:56;11.80;99.90
42019;DHT22;27703;51.980;5.848;2023-03-23T01:01:21;11.70;99.90
42019;DHT22;27703;51.980;5.848;2023-03-23T01:03:47;11.70;99.90
42019;DHT22;27703;51.980;5.848;2023-03-23T01:06:12;11.70;99.90
42019;DHT22;27703;51.980;5.848;2023-03-23T01:08:41;11.70;99.90
42019;DHT22;27703;51.980;5.848;2023-03-23T01:11:14;11.70;99.90
42019;DHT22;27703;51.980;5.848;2023-03-23T01:13:41;11.70;99.90
42019;DHT22;27703;51.980;5.848;2023-03-23T01:16:07;11.80;99.90
42019;DHT22;27703;51.980;5.848;2023-03-23T01:18:32;11.80;99.90
42019;DHT22;27703;51.980;5.848;2023-03-23T01:20:58;11.80;99.90
42019;DHT22;27703;51.980;5.848;2023-03-23T01:23:28;11.80;99.90
42019;DHT22;27703;51.980;5.848;2023-03-23T01:25:53;11.80;99.90
42019;DHT22;27703;51.980;5.848;2023-03-23T01:28:22;11.80;99.90
42019;DHT22;27703;51.980;5.848;2023-03-23T01:30:48;11.80;99.90
42019;DHT22;27703;51.980;5.848;2023-03-23T01:33:13;11.80;99.90
42019;DHT22;27703;51.980;5.848;2023-03-23T01:35:39;11.80;99.90
42019;DHT22;27703;51.980;5.848;2023-03-23T01:38:04;11.90;99.90
42019;DHT22;27703;51.980;5.848;2023-03-23T01:40:30;11.90;99.90
42019;DHT22;27703;51.980;5.848;2023-03-23T01:42:56;12.00;99.90
42019;DHT22;27703;51.980;5.848;2023-03-23T01:45:26;12.00;99.90
42019;DHT22;27703;51.980;5.848;2023-03-23T01:47:54;12.00;99.90
42019;DHT22;27703;51.980;5.848;2023-03-23T01:50:21;12.00;99.90
42019;DHT22;27703;51.980;5.848;2023-03-23T01:52:48;12.00;99.90
42019;DHT22;27703;51.980;5.848;2023-03-23T01:55:14;12.00;99.90
42019;DHT22;27703;51.980;5.848;2023-03-23T01:57:39;12.00;99.90
42019;DHT22;27703;51.980;5.848;2023-03-23T02:00:06;12.00;99.90
42019;DHT22;27703;51.980;5.848;2023-03-23T02:02:43;12.00;99.90
42019;DHT22;27703;51.980;5.848;2023-03-23T02:05:18;12.00;99.90
42019;DHT22;27703;51.980;5.848;2023-03-23T02:07:46;11.90;99.90
42019;DHT22;27703;51.980;5.848;2023-03-23T02:10:13;11.90;99.90
42019;DHT22;27703;51.980;5.848;2023-03-23T02:12:38;11.90;99.90
42019;DHT22;27703;51.980;5.848;2023-03-23T02:15:04;12.00;99.90
42019;DHT22;27703;51.980;5.848;2023-03-23T02:17:31;11.90;99.90
42019;DHT22;27703;51.980;5.848;2023-03-23T02:32:47;12.10;99.90
42019;DHT22;27703;51.980;5.848;2023-03-23T02:43:06;12.00;99.90
42019;DHT22;27703;51.980;5.848;2023-03-23T02:45:32;12.10;99.90
42019;DHT22;27703;51.980;5.848;2023-03-23T02:47:59;12.10;99.90
42019;DHT22;27703;51.980;5.848;2023-03-23T02:50:26;12.10;99.90
42019;DHT22;27703;51.980;5.848;2023-03-23T02:52:52;12.10;99.90
42019;DHT22;27703;51.980;5.848;2023-03-23T02:55:18;12.10;99.90
42019;DHT22;27703;51.980;5.848;2023-03-23T02:57:45;12.10;99.90
42019;DHT22;27703;51.980;5.848;2023-03-23T03:00:12;12.10;99.90
42019;DHT22;27703;51.980;5.848;2023-03-23T03:02:39;12.10;99.90
42019;DHT22;27703;51.980;5.848;2023-03-23T03:05:10;12.20;99.90
42019;DHT22;27703;51.980;5.848;2023-03-23T03:10:10;12.10;99.90
42019;DHT22;27703;51.980;5.848;2023-03-23T03:15:09;12.10;99.90
42019;DHT22;27703;51.980;5.848;2023-03-23T03:17:36;12.10;99.90
42019;DHT22;27703;51.980;5.848;2023-03-23T03:20:05;12.10;99.90
42019;DHT22;27703;51.980;5.848;2023-03-23T03:22:34;12.10;99.90
42019;DHT22;27703;51.980;5.848;2023-03-23T03:25:02;12.20;99.90
42019;DHT22;27703;51.980;5.848;2023-03-23T03:27:28;12.10;99.90
42019;DHT22;27703;51.980;5.848;2023-03-23T03:29:55;12.10;99.90
42019;DHT22;27703;51.980;5.848;2023-03-23T03:32:23;12.20;99.90
42019;DHT22;27703;51.980;5.848;2023-03-23T03:34:50;12.20;99.90
42019;DHT22;27703;51.980;5.848;2023-03-23T03:37:16;12.20;99.90
42019;DHT22;27703;51.980;5.848;2023-03-23T03:39:41;12.10;99.90
42019;DHT22;27703;51.980;5.848;2023-03-23T03:42:07;12.10;99.90
42019;DHT22;27703;51.980;5.848;2023-03-23T03:44:33;12.10;99.90
42019;DHT22;27703;51.980;5.848;2023-03-23T03:46:58;12.10;99.90
42019;DHT22;27703;51.980;5.848;2023-03-23T03:49:24;12.10;99.90
42019;DHT22;27703;51.980;5.848;2023-03-23T03:51:50;12.00;99.90
42019;DHT22;27703;51.980;5.848;2023-03-23T03:54:16;12.00;99.90
42019;DHT22;27703;51.980;5.848;2023-03-23T03:56:41;12.00;99.90
42019;DHT22;27703;51.980;5.848;2023-03-23T03:59:07;12.10;99.90
42019;DHT22;27703;51.980;5.848;2023-03-23T04:01:34;12.10;99.90
42019;DHT22;27703;51.980;5.848;2023-03-23T04:04:00;12.10;99.90
42019;DHT22;27703;51.980;5.848;2023-03-23T04:06:26;12.10;99.90
42019;DHT22;27703;51.980;5.848;2023-03-23T04:08:53;12.10;99.90
42019;DHT22;27703;51.980;5.848;2023-03-23T04:11:20;12.10;99.90
42019;DHT22;27703;51.980;5.848;2023-03-23T04:13:45;12.20;99.90
42019;DHT22;27703;51.980;5.848;2023-03-23T04:16:11;12.20;99.90
42019;DHT22;27703;51.980;5.848;2023-03-23T04:18:36;12.20;99.90
42019;DHT22;27703;51.980;5.848;2023-03-23T04:21:02;12.20;99.90
42019;DHT22;27703;51.980;5.848;2023-03-23T04:23:29;12.20;99.90
42019;DHT22;27703;51.980;5.848;2023-03-23T04:25:55;12.20;99.90
42019;DHT22;27703;51.980;5.848;2023-03-23T04:28:22;12.30;99.90
42019;DHT22;27703;51.980;5.848;2023-03-23T04:30:48;12.30;99.90
42019;DHT22;27703;51.980;5.848;2023-03-23T04:33:18;12.30;99.90
42019;DHT22;27703;51.980;5.848;2023-03-23T04:35:44;12.30;99.90
42019;DHT22;27703;51.980;5.848;2023-03-23T04:38:14;12.40;99.90
42019;DHT22;27703;51.980;5.848;2023-03-23T04:40:41;12.40;99.90
42019;DHT22;27703;51.980;5.848;2023-03-23T04:43:06;12.40;99.90
42019;DHT22;27703;51.980;5.848;2023-03-23T04:45:33;12.40;99.90
42019;DHT22;27703;51.980;5.848;2023-03-23T04:47:59;12.40;99.90
42019;DHT22;27703;51.980;5.848;2023-03-23T04:50:30;12.40;99.90
42019;DHT22;27703;51.980;5.848;2023-03-23T04:52:59;12.40;99.90
42019;DHT22;27703;51.980;5.848;2023-03-23T04:55:29;12.40;99.90
42019;DHT22;27703;51.980;5.848;2023-03-23T04:57:55;12.50;99.90
42019;DHT22;27703;51.980;5.848;2023-03-23T05:00:21;12.50;99.90
42019;DHT22;27703;51.980;5.848;2023-03-23T05:02:47;12.40;99.90
42019;DHT22;27703;51.980;5.848;2023-03-23T05:05:16;12.50;99.90
42019;DHT22;27703;51.980;5.848;2023-03-23T05:07:42;12.40;99.90
42019;DHT22;27703;51.980;5.848;2023-03-23T05:10:09;12.40;99.90
42019;DHT22;27703;51.980;5.848;2023-03-23T05:12:35;12.40;99.90
42019;DHT22;27703;51.980;5.848;2023-03-23T05:15:00;12.50;99.90
42019;DHT22;27703;51.980;5.848;2023-03-23T05:17:26;12.40;99.90
42019;DHT22;27703;51.980;5.848;2023-03-23T05:19:52;12.40;99.90
42019;DHT22;27703;51.980;5.848;2023-03-23T05:22:18;12.40;99.90
42019;DHT22;27703;51.980;5.848;2023-03-23T05:24:46;12.40;99.90
42019;DHT22;27703;51.980;5.848;2023-03-23T05:27:12;12.30;99.90
42019;DHT22;27703;51.980;5.848;2023-03-23T05:29:38;12.40;99.90
42019;DHT22;27703;51.980;5.848;2023-03-23T05:32:06;12.40;99.90
42019;DHT22;27703;51.980;5.848;2023-03-23T05:34:33;12.40;99.90
42019;DHT22;27703;51.980;5.848;2023-03-23T05:36:59;12.50;99.90
42019;DHT22;27703;51.980;5.848;2023-03-23T05:39:24;12.40;99.90
42019;DHT22;27703;51.980;5.848;2023-03-23T05:41:50;12.40;99.90
42019;DHT22;27703;51.980;5.848;2023-03-23T05:44:16;12.40;99.90
42019;DHT22;27703;51.980;5.848;2023-03-23T05:46:42;12.40;99.90
42019;DHT22;27703;51.980;5.848;2023-03-23T05:49:08;12.40;99.90
42019;DHT22;27703;51.980;5.848;2023-03-23T05:51:34;12.40;99.90
42019;DHT22;27703;51.980;5.848;2023-03-23T05:54:00;12.30;99.90
42019;DHT22;27703;51.980;5.848;2023-03-23T05:56:25;12.30;99.90
42019;DHT22;27703;51.980;5.848;2023-03-23T05:58:51;12.30;99.90
42019;DHT22;27703;51.980;5.848;2023-03-23T06:01:17;12.40;99.90
42019;DHT22;27703;51.980;5.848;2023-03-23T06:03:43;12.40;99.90
42019;DHT22;27703;51.980;5.848;2023-03-23T06:06:10;12.40;99.90
42019;DHT22;27703;51.980;5.848;2023-03-23T06:08:36;12.40;99.90
42019;DHT22;27703;51.980;5.848;2023-03-23T06:11:02;12.40;99.90
42019;DHT22;27703;51.980;5.848;2023-03-23T06:13:28;12.40;99.90
42019;DHT22;27703;51.980;5.848;2023-03-23T06:15:56;12.40;99.90
42019;DHT22;27703;51.980;5.848;2023-03-23T06:18:24;12.40;99.90
42019;DHT22;27703;51.980;5.848;2023-03-23T06:20:50;12.40;99.90
42019;DHT22;27703;51.980;5.848;2023-03-23T06:23:16;12.40;99.90
42019;DHT22;27703;51.980;5.848;2023-03-23T06:25:42;12.40;99.90
42019;DHT22;27703;51.980;5.848;2023-03-23T06:28:07;12.40;99.90
42019;DHT22;27703;51.980;5.848;2023-03-23T06:30:34;12.50;99.90
42019;DHT22;27703;51.980;5.848;2023-03-23T06:33:00;12.50;99.90
42019;DHT22;27703;51.980;5.848;2023-03-23T06:35:25;12.50;99.90
42019;DHT22;27703;51.980;5.848;2023-03-23T06:37:51;12.50;99.90
42019;DHT22;27703;51.980;5.848;2023-03-23T06:40:18;12.50;99.90
42019;DHT22;27703;51.980;5.848;2023-03-23T06:42:44;12.50;99.90
42019;DHT22;27703;51.980;5.848;2023-03-23T06:45:09;12.50;99.90
42019;DHT22;27703;51.980;5.848;2023-03-23T06:47:35;12.50;99.90
42019;DHT22;27703;51.980;5.848;2023-03-23T06:50:01;12.50;99.90
42019;DHT22;27703;51.980;5.848;2023-03-23T06:52:26;12.50;99.90
42019;DHT22;27703;51.980;5.848;2023-03-23T06:54:52;12.40;99.90
42019;DHT22;27703;51.980;5.848;2023-03-23T06:57:18;12.50;99.90
42019;DHT22;27703;51.980;5.848;2023-03-23T06:59:44;12.50;99.90
42019;DHT22;27703;51.980;5.848;2023-03-23T07:02:10;12.50;99.90
42019;DHT22;27703;51.980;5.848;2023-03-23T07:04:37;12.50;99.90
42019;DHT22;27703;51.980;5.848;2023-03-23T07:07:02;12.40;99.90
42019;DHT22;27703;51.980;5.848;2023-03-23T07:09:28;12.40;99.90
42019;DHT22;27703;51.980;5.848;2023-03-23T07:11:53;12.40;99.90
42019;DHT22;27703;51.980;5.848;2023-03-23T07:14:19;12.50;99.90
42019;DHT22;27703;51.980;5.848;2023-03-23T07:16:44;12.50;99.90
42019;DHT22;27703;51.980;5.848;2023-03-23T07:19:11;12.50;99.90
42019;DHT22;27703;51.980;5.848;2023-03-23T07:21:36;12.50;99.90
42019;DHT22;27703;51.980;5.848;2023-03-23T07:24:02;12.50;99.90
42019;DHT22;27703;51.980;5.848;2023-03-23T07:26:27;12.50;99.90
42019;DHT22;27703;51.980;5.848;2023-03-23T07:28:53;12.50;99.90
42019;DHT22;27703;51.980;5.848;2023-03-23T07:31:18;12.50;99.90
42019;DHT22;27703;51.980;5.848;2023-03-23T07:33:44;12.60;99.90
42019;DHT22;27703;51.980;5.848;2023-03-23T07:36:09;12.50;99.90
42019;DHT22;27703;51.980;5.848;2023-03-23T07:38:35;12.50;99.90
42019;DHT22;27703;51.980;5.848;2023-03-23T07:41:02;12.60;99.90
42019;DHT22;27703;51.980;5.848;2023-03-23T07:43:28;12.50;99.90
42019;DHT22;27703;51.980;5.848;2023-03-23T07:45:53;12.50;99.90
42019;DHT22;27703;51.980;5.848;2023-03-23T07:48:19;12.40;99.90
42019;DHT22;27703;51.980;5.848;2023-03-23T07:50:44;12.40;99.90
42019;DHT22;27703;51.980;5.848;2023-03-23T07:53:10;12.30;99.90
42019;DHT22;27703;51.980;5.848;2023-03-23T07:55:35;12.30;99.90
42019;DHT22;27703;51.980;5.848;2023-03-23T07:58:01;12.20;99.90
42019;DHT22;27703;51.980;5.848;2023-03-23T08:00:26;12.20;99.90
42019;DHT22;27703;51.980;5.848;2023-03-23T08:02:53;12.10;99.90
42019;DHT22;27703;51.980;5.848;2023-03-23T08:05:20;12.00;99.90
42019;DHT22;27703;51.980;5.848;2023-03-23T08:07:47;12.00;99.90
42019;DHT22;27703;51.980;5.848;2023-03-23T08:10:13;11.90;99.90
42019;DHT22;27703;51.980;5.848;2023-03-23T08:12:40;11.90;99.90
42019;DHT22;27703;51.980;5.848;2023-03-23T08:15:07;11.90;99.90
42019;DHT22;27703;51.980;5.848;2023-03-23T08:17:33;11.90;99.90
42019;DHT22;27703;51.980;5.848;2023-03-23T08:19:59;11.90;99.90
42019;DHT22;27703;51.980;5.848;2023-03-23T08:22:25;11.90;99.90
42019;DHT22;27703;51.980;5.848;2023-03-23T08:24:51;11.90;99.90
42019;DHT22;27703;51.980;5.848;2023-03-23T08:27:16;11.90;99.90
42019;DHT22;27703;51.980;5.848;2023-03-23T08:29:45;11.90;99.90
42019;DHT22;27703;51.980;5.848;2023-03-23T08:32:11;11.90;99.90
42019;DHT22;27703;51.980;5.848;2023-03-23T08:34:37;11.90;99.90
42019;DHT22;27703;51.980;5.848;2023-03-23T08:37:02;11.90;99.90
42019;DHT22;27703;51.980;5.848;2023-03-23T08:39:28;11.90;99.90
42019;DHT22;27703;51.980;5.848;2023-03-23T08:41:55;11.90;99.90
42019;DHT22;27703;51.980;5.848;2023-03-23T08:44:20;12.00;99.90
42019;DHT22;27703;51.980;5.848;2023-03-23T08:46:46;12.00;99.90
42019;DHT22;27703;51.980;5.848;2023-03-23T08:49:11;12.00;99.90
42019;DHT22;27703;51.980;5.848;2023-03-23T08:51:37;12.10;99.90
42019;DHT22;27703;51.980;5.848;2023-03-23T08:54:02;12.10;99.90
42019;DHT22;27703;51.980;5.848;2023-03-23T08:56:28;12.10;99.90
42019;DHT22;27703;51.980;5.848;2023-03-23T08:58:53;12.10;99.90
42019;DHT22;27703;51.980;5.848;2023-03-23T09:01:19;12.10;99.90
42019;DHT22;27703;51.980;5.848;2023-03-23T09:03:45;12.10;99.90
42019;DHT22;27703;51.980;5.848;2023-03-23T09:06:11;12.10;99.90
42019;DHT22;27703;51.980;5.848;2023-03-23T09:08:38;12.10;99.90
42019;DHT22;27703;51.980;5.848;2023-03-23T09:11:07;12.10;99.90
42019;DHT22;27703;51.980;5.848;2023-03-23T09:13:34;12.10;99.90
42019;DHT22;27703;51.980;5.848;2023-03-23T09:15:59;12.10;99.90
42019;DHT22;27703;51.980;5.848;2023-03-23T09:18:25;12.10;99.90
42019;DHT22;27703;51.980;5.848;2023-03-23T09:20:51;12.20;99.90
42019;DHT22;27703;51.980;5.848;2023-03-23T09:23:17;12.20;99.90
42019;DHT22;27703;51.980;5.848;2023-03-23T09:25:42;12.40;99.90
42019;DHT22;27703;51.980;5.848;2023-03-23T09:28:08;12.50;99.90
42019;DHT22;27703;51.980;5.848;2023-03-23T09:30:34;12.70;99.90
42019;DHT22;27703;51.980;5.848;2023-03-23T09:33:02;12.70;99.90
42019;DHT22;27703;51.980;5.848;2023-03-23T09:35:28;12.60;99.90
42019;DHT22;27703;51.980;5.848;2023-03-23T09:37:53;12.60;99.90
42019;DHT22;27703;51.980;5.848;2023-03-23T09:50:27;12.90;99.90
42019;DHT22;27703;51.980;5.848;2023-03-23T09:53:02;13.00;99.90
42019;DHT22;27703;51.980;5.848;2023-03-23T09:55:29;13.10;99.90
42019;DHT22;27703;51.980;5.848;2023-03-23T09:57:56;13.40;99.90
42019;DHT22;27703;51.980;5.848;2023-03-23T10:00:34;13.60;99.90
42019;DHT22;27703;51.980;5.848;2023-03-23T10:05:36;13.60;99.90
42019;DHT22;27703;51.980;5.848;2023-03-23T10:08:05;13.60;99.90
42019;DHT22;27703;51.980;5.848;2023-03-23T10:10:36;13.70;99.90
42019;DHT22;27703;51.980;5.848;2023-03-23T10:13:07;13.90;99.90
42019;DHT22;27703;51.980;5.848;2023-03-23T10:15:36;14.10;99.90
42019;DHT22;27703;51.980;5.848;2023-03-23T10:18:19;14.20;99.90
42019;DHT22;27703;51.980;5.848;2023-03-23T10:20:51;14.40;99.90
42019;DHT22;27703;51.980;5.848;2023-03-23T10:26:04;14.80;99.90
42019;DHT22;27703;51.980;5.848;2023-03-23T10:28:35;14.90;99.90
42019;DHT22;27703;51.980;5.848;2023-03-23T10:31:00;14.80;99.90
42019;DHT22;27703;51.980;5.848;2023-03-23T10:35:56;14.40;99.90
42019;DHT22;27703;51.980;5.848;2023-03-23T10:38:35;14.20;99.90
42019;DHT22;27703;51.980;5.848;2023-03-23T10:41:04;14.10;99.90
42019;DHT22;27703;51.980;5.848;2023-03-23T10:43:31;14.10;99.90
42019;DHT22;27703;51.980;5.848;2023-03-23T10:46:00;14.30;99.90
42019;DHT22;27703;51.980;5.848;2023-03-23T10:48:30;14.50;99.90
42019;DHT22;27703;51.980;5.848;2023-03-23T10:50:58;14.70;99.90
42019;DHT22;27703;51.980;5.848;2023-03-23T10:53:27;14.60;99.90
42019;DHT22;27703;51.980;5.848;2023-03-23T10:55:56;14.60;99.90
42019;DHT22;27703;51.980;5.848;2023-03-23T10:58:25;14.50;99.90
42019;DHT22;27703;51.980;5.848;2023-03-23T11:00:53;14.50;99.90
42019;DHT22;27703;51.980;5.848;2023-03-23T11:05:49;14.70;99.90
42019;DHT22;27703;51.980;5.848;2023-03-23T11:08:16;14.70;99.90
42019;DHT22;27703;51.980;5.848;2023-03-23T11:10:51;14.70;99.90
42019;DHT22;27703;51.980;5.848;2023-03-23T11:13:18;14.70;99.90
42019;DHT22;27703;51.980;5.848;2023-03-23T11:15:45;14.80;99.90
42019;DHT22;27703;51.980;5.848;2023-03-23T11:20:41;14.80;99.90
42019;DHT22;27703;51.980;5.848;2023-03-23T11:23:09;15.00;99.90
42019;DHT22;27703;51.980;5.848;2023-03-23T11:25:49;15.00;99.90
42019;DHT22;27703;51.980;5.848;2023-03-23T11:28:15;15.10;99.90
42019;DHT22;27703;51.980;5.848;2023-03-23T11:30:41;15.10;99.90
42019;DHT22;27703;51.980;5.848;2023-03-23T11:33:07;15.20;99.90
42019;DHT22;27703;51.980;5.848;2023-03-23T11:35:33;15.30;99.90
42019;DHT22;27703;51.980;5.848;2023-03-23T11:37:59;15.40;99.90
42019;DHT22;27703;51.980;5.848;2023-03-23T11:40:25;15.50;99.90
42019;DHT22;27703;51.980;5.848;2023-03-23T11:45:20;15.60;99.90
42019;DHT22;27703;51.980;5.848;2023-03-23T11:47:59;15.40;99.90
42019;DHT22;27703;51.980;5.848;2023-03-23T11:50:31;15.30;99.90
42019;DHT22;27703;51.980;5.848;2023-03-23T11:58:15;14.80;99.90
42019;DHT22;27703;51.980;5.848;2023-03-23T12:06:23;14.60;99.90
42019;DHT22;27703;51.980;5.848;2023-03-23T12:09:30;14.60;99.90
42019;DHT22;27703;51.980;5.848;2023-03-23T12:16:51;14.40;99.90
42019;DHT22;27703;51.980;5.848;2023-03-23T12:29:57;14.40;99.90
42019;DHT22;27703;51.980;5.848;2023-03-23T12:32:29;14.50;99.90
42019;DHT22;27703;51.980;5.848;2023-03-23T12:47:40;14.70;99.90
42019;DHT22;27703;51.980;5.848;2023-03-23T12:50:11;14.70;99.90
42019;DHT22;27703;51.980;5.848;2023-03-23T13:00:21;14.30;99.90
42019;DHT22;27703;51.980;5.848;2023-03-23T13:02:50;14.00;99.90
42019;DHT22;27703;51.980;5.848;2023-03-23T13:10:40;13.40;99.90
42019;DHT22;27703;51.980;5.848;2023-03-23T13:13:14;13.30;99.90
42019;DHT22;27703;51.980;5.848;2023-03-23T13:23:20;13.00;99.90
42019;DHT22;27703;51.980;5.848;2023-03-23T13:28:16;12.90;99.90
42019;DHT22;27703;51.980;5.848;2023-03-23T13:30:52;13.00;99.90
42019;DHT22;27703;51.980;5.848;2023-03-23T13:33:18;13.20;99.90
42019;DHT22;27703;51.980;5.848;2023-03-23T13:35:43;13.40;99.90
42019;DHT22;27703;51.980;5.848;2023-03-23T13:38:26;13.60;99.90
42019;DHT22;27703;51.980;5.848;2023-03-23T13:40:52;13.80;99.90
42019;DHT22;27703;51.980;5.848;2023-03-23T13:43:25;14.00;99.90
42019;DHT22;27703;51.980;5.848;2023-03-23T13:45:52;14.00;99.90
42019;DHT22;27703;51.980;5.848;2023-03-23T13:48:20;14.00;99.90
42019;DHT22;27703;51.980;5.848;2023-03-23T13:53:20;13.90;99.90
42019;DHT22;27703;51.980;5.848;2023-03-23T13:56:04;13.90;99.90
42019;DHT22;27703;51.980;5.848;2023-03-23T13:58:30;13.80;99.90
42019;DHT22;27703;51.980;5.848;2023-03-23T14:03:33;13.90;99.90
42019;DHT22;27703;51.980;5.848;2023-03-23T14:06:01;13.80;99.90
42019;DHT22;27703;51.980;5.848;2023-03-23T14:10:57;13.70;99.90
42019;DHT22;27703;51.980;5.848;2023-03-23T14:13:36;13.60;99.90
42019;DHT22;27703;51.980;5.848;2023-03-23T14:16:04;13.60;99.90
42019;DHT22;27703;51.980;5.848;2023-03-23T14:18:38;13.60;99.90
42019;DHT22;27703;51.980;5.848;2023-03-23T14:21:04;13.60;99.90
42019;DHT22;27703;51.980;5.848;2023-03-23T14:23:33;13.50;99.90
42019;DHT22;27703;51.980;5.848;2023-03-23T14:26:00;13.50;99.90
42019;DHT22;27703;51.980;5.848;2023-03-23T14:28:35;13.50;99.90
42019;DHT22;27703;51.980;5.848;2023-03-23T14:31:01;13.60;99.90
42019;DHT22;27703;51.980;5.848;2023-03-23T14:33:26;13.70;99.90
42019;DHT22;27703;51.980;5.848;2023-03-23T14:35:53;13.80;99.90
42019;DHT22;27703;51.980;5.848;2023-03-23T14:38:20;14.00;99.90
42019;DHT22;27703;51.980;5.848;2023-03-23T14:40:48;14.10;99.90
42019;DHT22;27703;51.980;5.848;2023-03-23T14:43:15;14.30;99.90
42019;DHT22;27703;51.980;5.848;2023-03-23T14:45:41;14.60;99.90
42019;DHT22;27703;51.980;5.848;2023-03-23T14:48:07;14.90;99.90
42019;DHT22;27703;51.980;5.848;2023-03-23T14:50:42;15.10;99.90
42019;DHT22;27703;51.980;5.848;2023-03-23T14:53:17;15.10;99.90
42019;DHT22;27703;51.980;5.848;2023-03-23T14:55:45;15.20;99.90
42019;DHT22;27703;51.980;5.848;2023-03-23T14:58:13;15.30;99.90
42019;DHT22;27703;51.980;5.848;2023-03-23T15:00:40;15.40;99.90
42019;DHT22;27703;51.980;5.848;2023-03-23T15:03:07;15.50;99.90
42019;DHT22;27703;51.980;5.848;2023-03-23T15:05:37;15.60;99.90
42019;DHT22;27703;51.980;5.848;2023-03-23T15:08:13;15.70;99.90
42019;DHT22;27703;51.980;5.848;2023-03-23T15:10:39;15.70;99.90
42019;DHT22;27703;51.980;5.848;2023-03-23T15:13:04;15.70;99.90
42019;DHT22;27703;51.980;5.848;2023-03-23T15:15:31;15.70;99.90
42019;DHT22;27703;51.980;5.848;2023-03-23T15:17:57;15.80;99.90
42019;DHT22;27703;51.980;5.848;2023-03-23T15:20:27;15.80;99.90
42019;DHT22;27703;51.980;5.848;2023-03-23T15:22:53;15.80;99.90
42019;DHT22;27703;51.980;5.848;2023-03-23T15:25:21;15.80;99.90
42019;DHT22;27703;51.980;5.848;2023-03-23T15:27:54;15.80;99.90
42019;DHT22;27703;51.980;5.848;2023-03-23T15:32:52;15.60;99.90
42019;DHT22;27703;51.980;5.848;2023-03-23T15:35:19;15.60;99.90
42019;DHT22;27703;51.980;5.848;2023-03-23T15:37:48;15.70;99.90
42019;DHT22;27703;51.980;5.848;2023-03-23T15:40:14;15.70;99.90
42019;DHT22;27703;51.980;5.848;2023-03-23T15:42:40;15.80;99.90
42019;DHT22;27703;51.980;5.848;2023-03-23T15:47:43;15.60;99.90
42019;DHT22;27703;51.980;5.848;2023-03-23T15:52:35;15.50;99.90
42019;DHT22;27703;51.980;5.848;2023-03-23T15:55:01;15.40;99.90
42019;DHT22;27703;51.980;5.848;2023-03-23T15:57:26;15.40;99.90
42019;DHT22;27703;51.980;5.848;2023-03-23T15:59:52;15.30;99.90
42019;DHT22;27703;51.980;5.848;2023-03-23T16:02:19;15.30;99.90
42019;DHT22;27703;51.980;5.848;2023-03-23T16:04:45;15.20;99.90
42019;DHT22;27703;51.980;5.848;2023-03-23T16:07:11;15.20;99.90
42019;DHT22;27703;51.980;5.848;2023-03-23T16:09:38;15.10;99.90
42019;DHT22;27703;51.980;5.848;2023-03-23T16:12:09;15.10;99.90
42019;DHT22;27703;51.980;5.848;2023-03-23T16:14:34;15.20;99.90
42019;DHT22;27703;51.980;5.848;2023-03-23T16:17:00;15.20;99.90
42019;DHT22;27703;51.980;5.848;2023-03-23T16:19:25;15.20;99.90
42019;DHT22;27703;51.980;5.848;2023-03-23T16:21:51;15.20;99.90
42019;DHT22;27703;51.980;5.848;2023-03-23T16:24:16;15.20;99.90
42019;DHT22;27703;51.980;5.848;2023-03-23T16:26:42;15.30;99.90
42019;DHT22;27703;51.980;5.848;2023-03-23T16:29:11;15.20;99.90
42019;DHT22;27703;51.980;5.848;2023-03-23T16:31:37;15.30;99.90
42019;DHT22;27703;51.980;5.848;2023-03-23T16:34:02;15.40;99.90
42019;DHT22;27703;51.980;5.848;2023-03-23T16:36:28;15.60;99.90
42019;DHT22;27703;51.980;5.848;2023-03-23T16:38:53;15.60;99.90
42019;DHT22;27703;51.980;5.848;2023-03-23T16:41:18;15.70;99.90
42019;DHT22;27703;51.980;5.848;2023-03-23T16:43:44;15.70;99.90
42019;DHT22;27703;51.980;5.848;2023-03-23T16:46:10;15.60;99.90
42019;DHT22;27703;51.980;5.848;2023-03-23T16:48:36;15.40;99.90
42019;DHT22;27703;51.980;5.848;2023-03-23T16:51:02;15.20;99.90
42019;DHT22;27703;51.980;5.848;2023-03-23T16:53:27;15.00;99.90
42019;DHT22;27703;51.980;5.848;2023-03-23T16:55:53;14.90;99.90
42019;DHT22;27703;51.980;5.848;2023-03-23T16:58:19;14.80;99.90
42019;DHT22;27703;51.980;5.848;2023-03-23T17:00:46;14.80;99.90
42019;DHT22;27703;51.980;5.848;2023-03-23T17:03:12;14.70;99.90
42019;DHT22;27703;51.980;5.848;2023-03-23T17:05:37;14.70;99.90
42019;DHT22;27703;51.980;5.848;2023-03-23T17:08:03;14.60;99.90
42019;DHT22;27703;51.980;5.848;2023-03-23T17:10:29;14.60;99.90
42019;DHT22;27703;51.980;5.848;2023-03-23T17:12:55;14.50;99.90
42019;DHT22;27703;51.980;5.848;2023-03-23T17:15:21;14.50;99.90
42019;DHT22;27703;51.980;5.848;2023-03-23T17:17:48;14.50;99.90
42019;DHT22;27703;51.980;5.848;2023-03-23T17:20:14;14.40;99.90
42019;DHT22;27703;51.980;5.848;2023-03-23T17:22:39;14.40;99.90
42019;DHT22;27703;51.980;5.848;2023-03-23T17:25:05;14.40;99.90
42019;DHT22;27703;51.980;5.848;2023-03-23T17:27:31;14.30;99.90
42019;DHT22;27703;51.980;5.848;2023-03-23T17:29:57;14.30;99.90
42019;DHT22;27703;51.980;5.848;2023-03-23T17:32:22;14.30;99.90
42019;DHT22;27703;51.980;5.848;2023-03-23T17:34:49;14.30;99.90
42019;DHT22;27703;51.980;5.848;2023-03-23T17:37:15;14.20;99.90
42019;DHT22;27703;51.980;5.848;2023-03-23T17:39:41;14.20;99.90